メインページ
METAR-TAF:

METAR-TAF

空港 :

Dawson Creek, ブリティッシュコロンビア州, カナダ

緯度: 55-45N, 経度: 120-11W, 海抜: 655m

現時点の気象観測

当レポートは1時間7分前の14:00(UTC)に作成
変向風 6kt
気温 -4°C
湿度 93%
気圧 991 hPa
視程: 14.5km
晴天

METAR: CYDQ 181400Z AUTO VRB06KT 9SM CLR M04/M05 A2926 RMK SLP950

時間: 08:07 (15:07 UTC)

予報

当レポートは2時間29分前の12:38(UTC)に作成
予報は18日の 13時(UTC)から 19日の 01時(UTC)まで有効
南東の風 5kt
視程: 10km
高度5000ftの雲は散在している
高度12000ftの千切れ雲あり
18日の 13時(UTC)から 18日の 15時(UTC)まで一時的に
視程: 6.4km
高度5000ftの千切れ雲あり
高度12000ftの曇り
弱いにわか雪
18日の 1500時(UTC)から
変向風 3kt
視程: 10km
高度8000ftの雲はほとんどない
高度15000ftの雲は散在している
18日の 18時(UTC)から 18日の 20時(UTC)まで徐々に
南西の風 8kt

TAF: CYDQ 181238Z 1813/1901 14005KT P6SM SCT050 BKN120 TEMPO 1813/1815 4SM -SHSN BKN050 OVC120 FM181500 VRB03KT P6SM FEW080 SCT150 BECMG 1818/1820 22008KT RMK FCST BASED ON AUTO OBS. NXT FCST BY 181900Z

4,000以上の空港の気象観測と天気予報(METAR報とTAF報)

利用可能な観測所は地図上に黄色い丸と赤い丸で示す。

丸の上にカーソルを重ねると観測所名を参照できる。

次にクリックすると気象観測と天気予報を参照できる。

マップの切り替え:黒色「×」印の緑ボタンをクリックして拡大、「-」印の緑ボタンをクリックして縮小、緑色の三角印をクリックして隣りの地図に切り替え


METAR-TAF: